TFFR

Pointe-à-Pitre

Airport
ICAO code
TFFR
Summary
ICAO Region
CARSAM
ICAO Territory
Location

Abymes, Grande-Terre, Guadeloupe,

Coordinates
16° 15' 55" N , 61° 31' 54" W
Metar
TFFR 282100Z AUTO 09011KT 9999 SCT033 SCT045 BKN088 27/20 Q1015 TEMPO SCT020TCU BKN030

Description

Pointe-à-Pitre International Airport or Pointe-à-Pitre Le Raizet Airport or Aéroport Guadeloupe Pôle Caraïbes is an airport serving Pointe-à-Pitre on the island of Grande-Terre in Guadeloupe. The airport is located in Abymes, 2.4 km north-northeast of Pointe-à-Pitre.

Climatology

Runways

Designator Length Width Surface Rops
11/29 3505 45 ASP Yes/Yes

Airport map

Aerial View

SKYbrary Partners:

Safety knowledge contributed by: